createdAt,value
2018-12-26T00:00:44.784Z,70.90
2018-12-26T00:03:18.324Z,71.10
2018-12-26T00:05:51.185Z,71.10
2018-12-26T00:08:25.167Z,71.30
2018-12-26T00:10:57.503Z,71.40
2018-12-26T00:13:30.304Z,71.30
2018-12-26T00:16:02.683Z,71.30
2018-12-26T00:18:36.077Z,71.30
2018-12-26T00:21:09.345Z,71.90
2018-12-26T00:23:42.426Z,72.20
2018-12-26T00:26:14.604Z,72.10
2018-12-26T00:28:48.144Z,72.00
2018-12-26T00:31:20.745Z,71.70
2018-12-26T00:33:53.544Z,71.40
2018-12-26T00:36:25.763Z,71.30
2018-12-26T00:38:57.703Z,71.60
2018-12-26T00:41:31.428Z,71.30
2018-12-26T00:44:04.883Z,71.00
2018-12-26T00:46:36.683Z,71.20
2018-12-26T00:49:09.882Z,71.60
2018-12-26T00:51:42.863Z,71.90
2018-12-26T00:54:15.903Z,72.10
2018-12-26T00:56:48.285Z,72.40
2018-12-26T00:59:23.963Z,72.30
2018-12-26T01:01:56.463Z,72.70
2018-12-26T01:04:29.044Z,72.50
2018-12-26T01:07:01.603Z,72.20
2018-12-26T01:09:34.007Z,72.20
2018-12-26T01:12:06.264Z,72.10
2018-12-26T01:14:39.964Z,72.30
2018-12-26T01:17:12.423Z,72.60
2018-12-26T01:19:44.363Z,73.00
2018-12-26T01:22:16.823Z,73.10
2018-12-26T01:24:49.003Z,72.90
2018-12-26T01:27:22.023Z,72.50
2018-12-26T01:29:54.044Z,72.30
2018-12-26T01:32:26.203Z,72.40
2018-12-26T01:34:59.263Z,72.50
2018-12-26T01:37:32.523Z,72.40
2018-12-26T01:40:05.330Z,72.20
2018-12-26T01:42:37.286Z,71.80
2018-12-26T01:45:10.764Z,71.80
2018-12-26T01:47:43.846Z,71.60
2018-12-26T01:50:16.025Z,72.00
2018-12-26T01:52:48.603Z,71.70
2018-12-26T01:55:21.383Z,71.50
2018-12-26T01:57:54.442Z,71.30
2018-12-26T02:00:27.323Z,71.50
2018-12-26T02:02:59.683Z,71.60
2018-12-26T02:05:32.422Z,71.70
2018-12-26T02:08:06.062Z,72.00
2018-12-26T02:10:38.603Z,72.40
2018-12-26T02:13:11.443Z,72.40
2018-12-26T02:15:44.443Z,72.30
2018-12-26T02:18:17.384Z,72.20
2018-12-26T02:20:50.262Z,72.20
2018-12-26T02:23:22.385Z,72.20
2018-12-26T02:25:54.844Z,72.40
2018-12-26T02:28:26.845Z,71.80
2018-12-26T02:30:59.864Z,72.00
2018-12-26T02:33:32.303Z,72.10
2018-12-26T02:36:04.529Z,72.00
2018-12-26T02:38:37.223Z,71.80
2018-12-26T02:41:10.545Z,72.60
2018-12-26T02:43:42.704Z,71.80
2018-12-26T02:46:15.662Z,72.00
2018-12-26T02:48:49.303Z,72.10
2018-12-26T02:51:21.884Z,72.00
2018-12-26T02:53:54.164Z,72.30
2018-12-26T02:56:26.631Z,72.30
2018-12-26T02:58:59.568Z,72.40
2018-12-26T03:01:32.164Z,72.50
2018-12-26T03:04:04.503Z,72.50
2018-12-26T03:06:36.824Z,72.50
2018-12-26T03:09:10.503Z,72.60
2018-12-26T03:11:44.484Z,72.30
2018-12-26T03:14:17.024Z,72.00
2018-12-26T03:16:49.922Z,71.80
2018-12-26T03:19:22.685Z,71.80
2018-12-26T03:21:55.384Z,71.80
2018-12-26T03:24:27.646Z,72.10
2018-12-26T03:27:00.366Z,72.00
2018-12-26T03:29:33.707Z,71.90
2018-12-26T03:32:06.667Z,72.00
2018-12-26T03:34:39.544Z,72.30
2018-12-26T03:37:11.746Z,72.40
2018-12-26T03:39:44.852Z,72.30
2018-12-26T03:42:17.569Z,72.30
2018-12-26T03:44:50.646Z,72.30
2018-12-26T03:47:22.526Z,72.40
2018-12-26T03:49:54.026Z,72.50
2018-12-26T03:52:26.688Z,72.40
2018-12-26T03:54:59.807Z,72.50
2018-12-26T03:57:32.846Z,72.40
2018-12-26T04:00:06.088Z,72.50
2018-12-26T04:02:38.432Z,73.10
2018-12-26T04:05:10.747Z,72.70
2018-12-26T04:07:43.928Z,72.80
2018-12-26T04:10:17.007Z,72.80
2018-12-26T04:12:50.986Z,72.90
2018-12-26T04:15:24.126Z,72.70
2018-12-26T04:17:56.649Z,72.80
2018-12-26T04:20:29.649Z,72.80
2018-12-26T04:23:02.112Z,72.70
2018-12-26T04:25:34.925Z,73.00
2018-12-26T04:28:07.427Z,73.00
2018-12-26T04:30:40.468Z,72.90
2018-12-26T04:33:13.746Z,72.50
2018-12-26T04:35:47.065Z,72.10
2018-12-26T04:38:19.865Z,72.00
2018-12-26T04:40:52.446Z,71.90
2018-12-26T04:43:25.406Z,71.60
2018-12-26T04:45:58.547Z,71.30
2018-12-26T04:48:31.726Z,70.80
2018-12-26T04:51:04.386Z,70.20
2018-12-26T04:53:37.285Z,70.20
2018-12-26T04:56:10.346Z,70.00
2018-12-26T04:58:43.846Z,70.70
2018-12-26T05:01:15.746Z,70.80
2018-12-26T05:03:48.126Z,71.10
2018-12-26T05:06:21.491Z,71.10
2018-12-26T05:08:53.845Z,71.00
2018-12-26T05:11:27.186Z,70.90
2018-12-26T05:13:59.325Z,71.10
2018-12-26T05:16:31.847Z,71.10
2018-12-26T05:19:04.186Z,71.10
2018-12-26T05:21:36.606Z,71.20
2018-12-26T05:24:09.065Z,71.40
2018-12-26T05:26:41.893Z,71.60
2018-12-26T05:29:14.266Z,71.70
2018-12-26T05:31:46.829Z,71.40
2018-12-26T05:34:18.706Z,71.10
2018-12-26T05:36:51.466Z,70.80
2018-12-26T05:39:23.705Z,70.10
2018-12-26T05:41:56.706Z,69.80
2018-12-26T05:44:29.485Z,69.10
2018-12-26T05:47:02.265Z,67.80
2018-12-26T05:49:35.106Z,67.00
2018-12-26T05:52:08.013Z,67.00
2018-12-26T05:54:41.246Z,67.50
2018-12-26T05:57:14.427Z,67.50
2018-12-26T05:59:47.149Z,67.30
2018-12-26T06:02:20.026Z,67.60
2018-12-26T06:04:52.225Z,67.70
2018-12-26T06:07:25.486Z,67.60
2018-12-26T06:09:57.809Z,67.40
2018-12-26T06:12:29.884Z,66.80
2018-12-26T06:15:02.886Z,66.80
2018-12-26T06:17:36.485Z,67.30
2018-12-26T06:20:10.086Z,67.80
2018-12-26T06:22:42.846Z,68.30
2018-12-26T06:25:15.687Z,68.50
2018-12-26T06:27:51.583Z,68.90
2018-12-26T06:30:22.104Z,69.10
2018-12-26T06:32:55.004Z,69.20
2018-12-26T06:35:28.105Z,69.50
2018-12-26T06:38:01.556Z,69.80
2018-12-26T06:40:34.145Z,70.10
2018-12-26T06:43:06.765Z,70.10
2018-12-26T06:45:40.125Z,70.00
2018-12-26T06:48:12.605Z,70.10
2018-12-26T06:50:45.426Z,69.90
2018-12-26T06:53:17.785Z,69.70
2018-12-26T06:55:50.365Z,69.80
2018-12-26T06:58:22.348Z,69.90
2018-12-26T07:00:55.525Z,70.10
2018-12-26T07:03:27.787Z,70.20
2018-12-26T07:06:00.265Z,70.20
2018-12-26T07:08:32.164Z,70.40
2018-12-26T07:11:03.847Z,70.50
2018-12-26T07:13:36.967Z,70.50
2018-12-26T07:16:10.105Z,70.40
2018-12-26T07:18:43.788Z,70.50
2018-12-26T07:21:16.332Z,70.70
2018-12-26T07:23:49.029Z,70.90
2018-12-26T07:26:21.285Z,71.10
2018-12-26T07:28:53.630Z,71.40
2018-12-26T07:31:26.666Z,71.30
2018-12-26T07:33:59.006Z,71.30
2018-12-26T07:36:31.525Z,71.20
2018-12-26T07:39:04.566Z,71.20
2018-12-26T07:41:36.739Z,70.90
2018-12-26T07:44:10.066Z,70.90
2018-12-26T07:46:42.266Z,71.70
2018-12-26T07:49:14.846Z,71.50
2018-12-26T07:51:47.865Z,71.40
2018-12-26T07:54:20.749Z,71.70
2018-12-26T07:56:54.047Z,71.90
2018-12-26T07:59:26.950Z,72.10
2018-12-26T08:02:00.086Z,72.50
2018-12-26T08:04:32.729Z,72.20
2018-12-26T08:07:04.806Z,71.80
2018-12-26T08:09:36.725Z,71.60
2018-12-26T08:12:09.705Z,71.50
2018-12-26T08:14:41.986Z,71.90
2018-12-26T08:17:13.566Z,71.40
2018-12-26T08:19:46.127Z,71.20
2018-12-26T08:22:18.585Z,71.30
2018-12-26T08:24:51.386Z,71.30
2018-12-26T08:27:24.650Z,71.30
2018-12-26T08:29:57.966Z,71.40
2018-12-26T08:32:30.246Z,71.40
2018-12-26T08:35:03.467Z,71.50
2018-12-26T08:37:36.305Z,71.40
2018-12-26T08:40:09.826Z,71.50
2018-12-26T08:42:42.387Z,71.70
2018-12-26T08:45:14.973Z,71.70
2018-12-26T08:47:48.105Z,71.80
2018-12-26T08:50:20.886Z,72.00
2018-12-26T08:52:54.269Z,72.10
2018-12-26T08:55:26.786Z,72.50
2018-12-26T08:57:59.805Z,73.20
2018-12-26T09:00:32.286Z,73.70
2018-12-26T09:03:05.305Z,73.90
2018-12-26T09:05:37.324Z,74.00
2018-12-26T09:08:10.028Z,74.20
2018-12-26T09:10:42.846Z,73.90
2018-12-26T09:13:14.845Z,73.70
2018-12-26T09:15:47.568Z,73.60
2018-12-26T09:18:20.325Z,73.20
2018-12-26T09:20:54.125Z,73.50
2018-12-26T09:23:27.245Z,73.60
2018-12-26T09:26:03.588Z,72.90
2018-12-26T09:28:43.827Z,73.00
2018-12-26T09:31:12.885Z,73.10
2018-12-26T09:33:44.806Z,72.90
2018-12-26T09:36:17.585Z,72.80
2018-12-26T09:38:50.404Z,72.90
2018-12-26T09:41:24.024Z,72.50
2018-12-26T09:43:56.584Z,72.70
2018-12-26T09:46:28.964Z,72.40
2018-12-26T09:49:00.925Z,72.30
2018-12-26T09:51:33.464Z,72.40
2018-12-26T09:54:06.445Z,72.60
2018-12-26T09:56:38.259Z,71.90
2018-12-26T09:59:11.485Z,71.50
2018-12-26T10:01:44.625Z,70.80
2018-12-26T10:04:17.444Z,71.50
2018-12-26T10:06:49.304Z,71.20
2018-12-26T10:09:22.085Z,71.20
2018-12-26T10:11:55.145Z,70.20
2018-12-26T10:14:26.844Z,70.80
2018-12-26T10:16:59.044Z,69.80
2018-12-26T10:19:32.387Z,68.40
2018-12-26T10:22:04.443Z,68.40
2018-12-26T10:24:37.047Z,67.90
2018-12-26T10:27:10.364Z,68.10
2018-12-26T10:29:42.665Z,67.90
2018-12-26T10:32:15.105Z,67.80
2018-12-26T10:34:48.225Z,67.20
2018-12-26T10:37:21.174Z,66.60
2018-12-26T10:39:53.564Z,66.20
2018-12-26T10:42:25.888Z,65.60
2018-12-26T10:44:59.403Z,64.60
2018-12-26T10:47:32.224Z,64.30
2018-12-26T10:50:05.223Z,63.20
2018-12-26T10:52:37.766Z,63.40
2018-12-26T10:55:11.828Z,62.60
2018-12-26T10:57:45.246Z,61.80
2018-12-26T11:00:18.445Z,62.70
2018-12-26T11:02:50.404Z,63.50
2018-12-26T11:05:29.538Z,64.60
2018-12-26T11:07:57.884Z,64.60
2018-12-26T11:10:30.684Z,64.70
2018-12-26T11:13:02.885Z,65.10
2018-12-26T11:15:35.044Z,64.90
2018-12-26T11:18:07.963Z,65.20
2018-12-26T11:20:40.185Z,65.90
2018-12-26T11:23:13.064Z,66.10
2018-12-26T11:25:46.205Z,66.80
2018-12-26T11:28:19.245Z,67.10
2018-12-26T11:30:51.944Z,66.60
2018-12-26T11:33:24.625Z,67.10
2018-12-26T11:35:57.365Z,67.40
2018-12-26T11:38:29.985Z,67.20
2018-12-26T11:41:02.366Z,67.80
2018-12-26T11:43:35.926Z,67.80
2018-12-26T11:46:09.204Z,67.90
2018-12-26T11:48:41.445Z,68.40
2018-12-26T11:51:14.406Z,68.40
2018-12-26T11:53:47.705Z,68.60
2018-12-26T11:56:20.225Z,68.80
2018-12-26T11:58:52.443Z,68.70
2018-12-26T12:01:25.187Z,68.10
2018-12-26T12:03:58.058Z,68.60
2018-12-26T12:06:31.118Z,69.30
2018-12-26T12:09:04.499Z,69.70
2018-12-26T12:11:37.457Z,70.00
2018-12-26T12:14:09.858Z,69.90
2018-12-26T12:16:42.688Z,70.20
2018-12-26T12:19:14.818Z,69.70
2018-12-26T12:21:47.857Z,69.60
2018-12-26T12:24:20.682Z,69.60
2018-12-26T12:26:53.702Z,70.00
2018-12-26T12:29:26.123Z,70.80
2018-12-26T12:31:58.418Z,71.30
2018-12-26T12:34:31.418Z,71.10
2018-12-26T12:37:04.218Z,70.90
2018-12-26T12:39:36.197Z,70.70
2018-12-26T12:42:09.057Z,71.30
2018-12-26T12:44:41.398Z,71.20
2018-12-26T12:47:14.397Z,71.20
2018-12-26T12:49:47.517Z,71.40
2018-12-26T12:52:19.978Z,71.10
2018-12-26T12:54:52.397Z,71.10
2018-12-26T12:57:24.957Z,71.20
2018-12-26T12:59:57.796Z,71.00
2018-12-26T13:02:30.396Z,71.30
2018-12-26T13:05:03.497Z,71.30
2018-12-26T13:07:37.036Z,71.90
2018-12-26T13:10:09.437Z,71.40
2018-12-26T13:12:42.296Z,71.60
2018-12-26T13:15:15.298Z,71.80
2018-12-26T13:17:48.956Z,71.80
2018-12-26T13:20:21.724Z,71.90
2018-12-26T13:22:55.076Z,72.30
2018-12-26T13:25:27.656Z,71.90
2018-12-26T13:28:00.236Z,72.20
2018-12-26T13:30:32.395Z,72.10
2018-12-26T13:33:06.215Z,71.90
2018-12-26T13:35:38.736Z,71.60
2018-12-26T13:38:11.811Z,71.80
2018-12-26T13:40:43.915Z,72.10
2018-12-26T13:43:16.487Z,72.40
2018-12-26T13:45:49.188Z,72.20
2018-12-26T13:48:21.629Z,71.80
2018-12-26T13:50:53.547Z,72.00
2018-12-26T13:53:26.668Z,72.30
2018-12-26T13:55:59.648Z,72.70
2018-12-26T13:58:31.665Z,72.90
2018-12-26T14:01:03.975Z,73.00
2018-12-26T14:03:36.314Z,72.40
2018-12-26T14:06:08.010Z,72.00
2018-12-26T14:08:40.466Z,72.40
2018-12-26T14:11:12.786Z,72.30
2018-12-26T14:13:45.855Z,71.70
2018-12-26T14:16:18.254Z,71.70
2018-12-26T14:18:50.617Z,72.10
2018-12-26T14:21:22.818Z,72.00
2018-12-26T14:23:55.983Z,71.70
2018-12-26T14:26:28.021Z,71.70
2018-12-26T14:29:01.088Z,71.80
2018-12-26T14:31:33.668Z,72.10
2018-12-26T14:34:06.146Z,72.40
2018-12-26T14:36:39.106Z,72.60
2018-12-26T14:39:13.085Z,72.60
2018-12-26T14:41:45.767Z,72.30
2018-12-26T14:44:18.124Z,72.60
2018-12-26T14:46:50.687Z,72.40
2018-12-26T14:49:23.006Z,72.70
2018-12-26T14:51:55.487Z,72.80
2018-12-26T14:54:28.187Z,72.90
2018-12-26T14:57:01.247Z,72.50
2018-12-26T14:59:34.751Z,72.40
2018-12-26T15:02:06.859Z,72.30
2018-12-26T15:04:39.186Z,72.30
2018-12-26T15:07:12.570Z,72.60
2018-12-26T15:09:46.185Z,72.50
2018-12-26T15:12:18.745Z,72.60
2018-12-26T15:14:51.565Z,72.60
2018-12-26T15:17:24.166Z,73.20
2018-12-26T15:19:57.822Z,72.40
2018-12-26T15:22:30.043Z,72.60
2018-12-26T15:25:02.684Z,72.80
2018-12-26T15:27:35.983Z,72.60
2018-12-26T15:30:09.329Z,72.70
2018-12-26T15:32:41.903Z,72.60
2018-12-26T15:35:14.383Z,72.70
2018-12-26T15:37:47.443Z,72.80
2018-12-26T15:40:20.624Z,72.80
2018-12-26T15:42:54.006Z,72.60
2018-12-26T15:45:26.347Z,72.60
2018-12-26T15:47:58.685Z,72.90
2018-12-26T15:50:33.354Z,72.80
2018-12-26T15:53:06.362Z,72.70
2018-12-26T15:55:38.664Z,72.10
2018-12-26T15:58:11.284Z,72.30
2018-12-26T16:00:44.106Z,72.50
2018-12-26T16:03:17.444Z,72.50
2018-12-26T16:05:49.904Z,72.60
2018-12-26T16:08:21.827Z,72.50
2018-12-26T16:10:54.047Z,73.00
2018-12-26T16:13:26.523Z,72.80
2018-12-26T16:15:59.764Z,72.90
2018-12-26T16:18:33.144Z,73.00
2018-12-26T16:21:05.905Z,73.00
2018-12-26T16:23:38.684Z,73.00
2018-12-26T16:26:11.664Z,73.00
2018-12-26T16:28:45.444Z,72.60
2018-12-26T16:31:17.864Z,72.70
2018-12-26T16:33:50.684Z,73.00
2018-12-26T16:36:23.804Z,73.20
2018-12-26T16:38:56.804Z,73.10
2018-12-26T16:41:30.144Z,73.20
2018-12-26T16:44:02.775Z,73.00
2018-12-26T16:46:35.504Z,73.00
2018-12-26T16:49:08.265Z,73.20
2018-12-26T16:51:41.707Z,73.20
2018-12-26T16:54:14.105Z,73.40
2018-12-26T16:56:46.525Z,73.50
2018-12-26T16:59:19.284Z,73.40
2018-12-26T17:01:52.624Z,73.50
2018-12-26T17:04:26.204Z,74.00
2018-12-26T17:06:58.565Z,74.10
2018-12-26T17:09:31.667Z,73.80
2018-12-26T17:12:03.984Z,73.80
2018-12-26T17:14:36.285Z,73.90
2018-12-26T17:17:09.412Z,73.80
2018-12-26T17:19:41.946Z,73.70
2018-12-26T17:22:13.967Z,74.20
2018-12-26T17:24:53.444Z,74.20
2018-12-26T17:27:25.790Z,74.00
2018-12-26T17:29:58.685Z,74.00
2018-12-26T17:32:31.247Z,74.10
2018-12-26T17:35:03.523Z,74.20
2018-12-26T17:37:36.885Z,74.10
2018-12-26T17:40:10.229Z,74.10
2018-12-26T17:42:43.383Z,73.90
2018-12-26T17:45:21.244Z,73.90
2018-12-26T17:47:56.078Z,73.80
2018-12-26T17:50:46.484Z,73.90
2018-12-26T17:53:30.305Z,74.00
2018-12-26T17:56:12.524Z,74.10
2018-12-26T17:59:06.104Z,74.10
2018-12-26T18:01:59.504Z,74.20
2018-12-26T18:04:31.565Z,73.90
2018-12-26T18:07:03.483Z,74.00
2018-12-26T18:09:36.265Z,74.40
2018-12-26T18:12:12.036Z,74.60
2018-12-26T18:14:44.465Z,74.40
2018-12-26T18:17:17.223Z,74.40
2018-12-26T18:19:51.084Z,74.80
2018-12-26T18:22:24.453Z,74.60
2018-12-26T18:24:56.624Z,74.50
2018-12-26T18:27:29.464Z,74.60
2018-12-26T18:30:02.723Z,74.70
2018-12-26T18:32:35.468Z,74.40
2018-12-26T18:35:08.804Z,74.80
2018-12-26T18:37:41.263Z,74.90
2018-12-26T18:40:15.003Z,75.20
2018-12-26T18:42:47.626Z,75.40
2018-12-26T18:45:21.365Z,75.20
2018-12-26T18:47:53.587Z,75.40
2018-12-26T18:50:26.548Z,75.40
2018-12-26T18:52:59.165Z,75.60
2018-12-26T18:55:31.944Z,75.90
2018-12-26T18:58:03.904Z,75.80
2018-12-26T19:00:37.445Z,76.10
2018-12-26T19:03:09.925Z,76.90
2018-12-26T19:05:43.005Z,76.10
2018-12-26T19:08:15.644Z,76.10
2018-12-26T19:10:48.226Z,76.30
2018-12-26T19:13:20.924Z,76.10
2018-12-26T19:15:54.005Z,76.00
2018-12-26T19:18:27.744Z,76.20
2018-12-26T19:20:58.544Z,76.40
2018-12-26T19:23:31.125Z,75.90
2018-12-26T19:26:03.881Z,76.00
2018-12-26T19:28:37.265Z,76.30
2018-12-26T19:31:10.366Z,76.20
2018-12-26T19:33:43.765Z,76.00
2018-12-26T19:36:17.565Z,76.10
2018-12-26T19:38:51.174Z,76.30
2018-12-26T19:41:23.785Z,76.10
2018-12-26T19:43:56.165Z,76.30
2018-12-26T19:46:28.865Z,76.10
2018-12-26T19:49:02.006Z,76.30
2018-12-26T19:51:34.864Z,76.50
2018-12-26T19:54:07.046Z,76.40
2018-12-26T19:56:39.965Z,76.70
2018-12-26T19:59:12.805Z,76.70
2018-12-26T20:01:48.253Z,76.40
2018-12-26T20:04:19.023Z,76.30
2018-12-26T20:06:51.825Z,76.40
2018-12-26T20:09:25.064Z,76.30
2018-12-26T20:12:00.604Z,76.20
2018-12-26T20:14:33.063Z,76.30
2018-12-26T20:17:06.544Z,76.60
2018-12-26T20:19:39.584Z,76.30
2018-12-26T20:22:12.025Z,76.10
2018-12-26T20:24:44.285Z,76.10
2018-12-26T20:27:15.925Z,75.90
2018-12-26T20:29:48.765Z,75.60
2018-12-26T20:32:21.183Z,75.40
2018-12-26T20:34:54.043Z,75.30
2018-12-26T20:37:27.744Z,76.00
2018-12-26T20:40:01.227Z,75.40
2018-12-26T20:42:33.565Z,75.60
2018-12-26T20:45:06.064Z,75.70
2018-12-26T20:47:38.724Z,75.90
2018-12-26T20:50:11.643Z,76.10
2018-12-26T20:52:44.244Z,76.00
2018-12-26T20:55:17.005Z,75.90
2018-12-26T20:57:49.768Z,75.80
2018-12-26T21:00:22.084Z,75.70
2018-12-26T21:02:54.485Z,75.50
2018-12-26T21:05:27.805Z,75.60
2018-12-26T21:08:01.403Z,75.60
2018-12-26T21:10:34.443Z,75.50
2018-12-26T21:13:07.004Z,75.70
2018-12-26T21:15:40.164Z,75.70
2018-12-26T21:18:12.943Z,75.70
2018-12-26T21:20:45.784Z,75.20
2018-12-26T21:23:18.683Z,75.50
2018-12-26T21:25:51.804Z,75.40
2018-12-26T21:28:24.544Z,75.60
2018-12-26T21:30:57.924Z,75.60
2018-12-26T21:33:30.207Z,75.40
2018-12-26T21:36:02.845Z,75.70
2018-12-26T21:38:36.163Z,75.70
2018-12-26T21:41:09.424Z,75.70
2018-12-26T21:43:43.105Z,76.00
2018-12-26T21:46:19.105Z,76.10
2018-12-26T21:48:52.464Z,76.00
2018-12-26T21:51:24.784Z,76.40
2018-12-26T21:53:58.205Z,76.70
2018-12-26T21:56:31.324Z,76.60
2018-12-26T21:59:04.704Z,76.80
2018-12-26T22:01:36.925Z,76.90
2018-12-26T22:04:09.885Z,76.60
2018-12-26T22:06:42.706Z,76.70
2018-12-26T22:09:14.906Z,76.50
2018-12-26T22:11:48.125Z,76.40
2018-12-26T22:14:20.403Z,75.70
2018-12-26T22:16:53.204Z,75.60
2018-12-26T22:19:26.365Z,75.30
2018-12-26T22:21:58.084Z,74.90
2018-12-26T22:24:30.706Z,75.40
2018-12-26T22:27:03.544Z,75.60
2018-12-26T22:29:35.843Z,76.20
2018-12-26T22:32:08.683Z,76.10
2018-12-26T22:34:40.723Z,76.10
2018-12-26T22:37:13.085Z,76.20
2018-12-26T22:39:45.487Z,76.20
2018-12-26T22:42:18.525Z,76.00
2018-12-26T22:44:51.124Z,76.10
2018-12-26T22:47:23.905Z,75.90
2018-12-26T22:49:56.146Z,76.00
2018-12-26T22:52:29.145Z,76.10
2018-12-26T22:55:01.664Z,76.30
2018-12-26T22:57:34.083Z,77.00
2018-12-26T23:00:07.963Z,76.70
2018-12-26T23:02:39.664Z,76.70
2018-12-26T23:05:12.985Z,76.70
2018-12-26T23:07:47.584Z,76.70
2018-12-26T23:10:20.683Z,76.50
2018-12-26T23:12:53.324Z,76.90
2018-12-26T23:15:26.284Z,76.90
2018-12-26T23:17:58.763Z,77.00
2018-12-26T23:20:32.908Z,77.00
2018-12-26T23:23:05.805Z,76.90
2018-12-26T23:25:38.746Z,77.00
2018-12-26T23:28:10.845Z,76.80
2018-12-26T23:30:44.566Z,76.90
2018-12-26T23:33:17.024Z,76.90
2018-12-26T23:35:50.045Z,76.90
2018-12-26T23:38:23.184Z,76.80
2018-12-26T23:40:56.483Z,76.70
2018-12-26T23:43:28.742Z,76.50
2018-12-26T23:46:01.843Z,76.60
2018-12-26T23:48:34.524Z,76.80
2018-12-26T23:51:08.265Z,76.90
2018-12-26T23:53:40.604Z,77.00
2018-12-26T23:56:13.503Z,77.10
2018-12-26T23:58:46.865Z,77.30
